Time;durP1;ratioP1;P1;durP2;ratioP2;P2;SDS_P1;SDS_P2;PMS_P1;PMS_P2;Temp;Humidity;BMP_temperature;BMP_pressure;BME280_temperature;BME280_humidity;BME280_pressure;Samples;Min_cycle;Max_cycle;Signal;HPM_P1;HPM_P2
2022/01/20 00:00:53;;;;;;;8.48;4.55;;;;;;;2.47;70.39;96778.72;5008122;28;20054;-70
2022/01/20 00:03:23;;;;;;;7.40;3.97;;;;;;;2.48;69.99;96777.66;5007644;28;20073;-70
2022/01/20 00:06:39;;;;;;;7.72;4.20;;;;;;;2.52;70.11;96768.03;5008219;28;20133;-70
2022/01/20 00:09:09;;;;;;;7.03;3.80;;;;;;;2.51;69.85;96772.59;5007909;28;20046;-70
2022/01/20 00:28:11;;;;;;;8.20;4.05;;;;;;;2.53;69.69;96780.38;5007556;28;20056;-70
2022/01/20 00:30:44;;;;;;;8.80;3.90;;;;;;;2.49;69.75;96779.28;5007698;28;20046;-70
2022/01/20 00:33:20;;;;;;;5.97;3.63;;;;;;;2.50;69.32;96775.50;5007190;28;20161;-70
2022/01/20 00:38:31;;;;;;;6.38;3.35;;;;;;;2.47;69.69;96781.41;5007048;28;20451;-70
2022/01/20 00:40:57;;;;;;;6.72;3.63;;;;;;;2.50;69.60;96780.88;5007533;28;20048;-70
2022/01/20 00:43:24;;;;;;;6.57;3.42;;;;;;;2.51;69.55;96777.16;5006376;28;20052;-70
2022/01/20 00:45:52;;;;;;;6.20;3.30;;;;;;;2.54;69.14;96787.38;5007873;28;20057;-70
2022/01/20 00:48:19;;;;;;;6.93;3.50;;;;;;;2.55;69.25;96783.63;5007181;28;20050;-70
2022/01/20 00:50:47;;;;;;;6.13;3.13;;;;;;;2.55;69.21;96778.25;5007603;28;20045;-70
2022/01/20 00:53:13;;;;;;;5.88;2.95;;;;;;;2.55;69.05;96789.00;5006865;28;20409;-70
2022/01/20 00:55:40;;;;;;;7.03;3.67;;;;;;;2.53;69.16;96791.16;5007784;28;20058;-68
2022/01/20 00:58:07;;;;;;;5.68;3.25;;;;;;;2.53;69.65;96785.75;5007289;28;20049;-70
2022/01/20 01:00:33;;;;;;;4.93;3.13;;;;;;;2.52;69.14;96782.28;5007582;28;20057;-70
2022/01/20 01:03:01;;;;;;;6.93;3.75;;;;;;;2.53;69.30;96785.75;5007101;28;20497;-70
2022/01/20 01:05:28;;;;;;;6.85;3.70;;;;;;;2.54;69.35;96785.50;5007482;28;20050;-70
2022/01/20 01:07:56;;;;;;;5.85;3.22;;;;;;;2.58;69.07;96783.13;5007862;28;20057;-70
2022/01/20 01:10:26;;;;;;;5.32;3.17;;;;;;;2.59;69.21;96784.75;5007061;28;20065;-70
2022/01/20 01:12:57;;;;;;;5.97;3.22;;;;;;;2.61;68.68;96788.00;5007451;28;20127;-70
2022/01/20 01:15:28;;;;;;;7.72;3.35;;;;;;;2.63;68.76;96791.22;5008312;28;20049;-70
2022/01/20 01:21:09;;;;;;;5.10;3.00;;;;;;;2.73;68.54;96783.25;5010746;28;20060;-68
2022/01/20 01:23:36;;;;;;;4.70;3.00;;;;;;;2.74;68.79;96792.13;5010424;28;20127;-68
2022/01/20 01:26:05;;;;;;;6.32;2.95;;;;;;;2.73;68.57;96791.31;5010886;28;20053;-68
2022/01/20 01:28:32;;;;;;;5.80;3.22;;;;;;;2.71;68.01;96787.25;5011295;28;20057;-69
2022/01/20 01:31:27;;;;;;;6.70;3.25;;;;;;;2.70;68.21;96786.44;5010556;28;20112;-68
2022/01/20 01:33:57;;;;;;;5.57;3.35;;;;;;;2.76;68.58;96792.66;5010527;28;20045;-68
2022/01/20 01:36:27;;;;;;;5.57;3.17;;;;;;;2.70;68.68;96786.44;5010394;28;20128;-69
2022/01/20 01:38:54;;;;;;;5.00;2.83;;;;;;;2.64;68.25;96787.47;5011064;28;20708;-68
2022/01/20 01:41:29;;;;;;;8.13;3.20;;;;;;;2.63;68.35;96777.78;5009852;28;20496;-68
2022/01/20 01:43:57;;;;;;;6.10;3.30;;;;;;;2.63;68.41;96774.28;5009915;28;20053;-69
2022/01/20 01:46:24;;;;;;;6.13;3.85;;;;;;;2.63;68.40;96779.66;5010131;28;20104;-69
2022/01/20 01:48:51;;;;;;;5.68;3.08;;;;;;;2.64;68.80;96765.97;5010763;28;20050;-69
2022/01/20 01:51:17;;;;;;;5.63;3.17;;;;;;;2.65;68.68;96766.75;5009749;28;20050;-68
2022/01/20 01:53:45;;;;;;;5.32;2.70;;;;;;;2.64;68.16;96765.97;5010343;28;20632;-68
2022/01/20 01:56:12;;;;;;;7.00;3.30;;;;;;;2.64;68.33;96771.34;5009942;28;20057;-68
2022/01/20 01:58:38;;;;;;;6.30;3.13;;;;;;;2.67;68.41;96764.66;5010476;28;20046;-68
2022/01/20 02:01:05;;;;;;;7.65;3.30;;;;;;;2.68;68.49;96767.06;5009559;28;20050;-69
2022/01/20 02:03:34;;;;;;;5.05;2.97;;;;;;;2.68;68.79;96772.44;5010085;28;20046;-68
2022/01/20 02:06:20;;;;;;;5.70;3.10;;;;;;;2.64;68.54;96765.97;5010469;28;20046;-68
2022/01/20 02:08:56;;;;;;;7.55;2.78;;;;;;;2.69;69.00;96751.75;5010176;28;20669;-68
2022/01/20 02:19:54;;;;;;;5.65;3.38;;;;;;;2.61;69.01;96744.97;4968062;28;20054;-69
2022/01/20 02:22:20;;;;;;;4.85;2.95;;;;;;;2.57;68.82;96739.28;5000915;28;20054;-68
2022/01/20 02:24:47;;;;;;;4.70;3.10;;;;;;;2.59;69.16;96747.09;5010250;28;20041;-68
2022/01/20 02:27:13;;;;;;;6.20;2.78;;;;;;;2.58;69.04;96751.66;5008773;28;20050;-68
2022/01/20 02:29:41;;;;;;;5.70;2.95;;;;;;;2.65;69.00;96751.44;5009884;28;20057;-68
2022/01/20 02:32:08;;;;;;;5.15;2.53;;;;;;;2.62;69.09;96757.34;5009333;28;20056;-69
2022/01/20 02:34:35;;;;;;;5.90;2.85;;;;;;;2.61;69.12;96747.66;5009804;28;20058;-68
2022/01/20 02:37:09;;;;;;;6.00;2.65;;;;;;;2.59;69.21;96752.47;5009763;28;20420;-68
2022/01/20 02:40:02;;;;;;;5.45;2.88;;;;;;;2.59;69.58;96739.84;5009162;28;20568;-68
2022/01/20 02:45:13;;;;;;;5.35;2.72;;;;;;;2.53;70.58;96742.75;5009121;28;20099;-68
2022/01/20 02:47:40;;;;;;;5.82;3.15;;;;;;;2.50;70.89;96733.31;5009498;28;20137;-69
2022/01/20 02:50:07;;;;;;;6.50;2.85;;;;;;;2.51;71.13;96728.78;5008863;28;20046;-68
2022/01/20 02:52:36;;;;;;;5.25;2.58;;;;;;;2.50;71.30;96719.06;5009395;28;20643;-69
2022/01/20 02:55:03;;;;;;;4.85;2.70;;;;;;;2.46;72.05;96720.66;5009028;28;20045;-69
2022/01/20 02:57:29;;;;;;;5.70;2.72;;;;;;;2.43;72.70;96721.16;5008957;28;20061;-69
2022/01/20 02:59:56;;;;;;;6.07;2.95;;;;;;;2.39;72.46;96725.44;5009282;28;20456;-68
2022/01/20 03:02:22;;;;;;;5.72;3.05;;;;;;;2.34;72.86;96716.25;5008805;28;20802;-68
2022/01/20 03:04:50;;;;;;;5.65;3.20;;;;;;;2.37;73.21;96711.44;5009149;28;20058;-69
2022/01/20 03:07:17;;;;;;;6.00;3.38;;;;;;;2.32;73.22;96709.53;5008865;28;20185;-68
2022/01/20 03:09:45;;;;;;;6.03;3.28;;;;;;;2.34;73.48;96708.19;5009027;28;20054;-68
2022/01/20 03:12:11;;;;;;;5.85;3.30;;;;;;;2.36;73.74;96705.25;5008542;28;20046;-69
2022/01/20 03:14:38;;;;;;;6.13;3.15;;;;;;;2.28;73.92;96706.53;5008959;28;20049;-68
2022/01/20 03:17:05;;;;;;;6.60;3.22;;;;;;;2.25;73.91;96698.19;5008778;28;20452;-68
2022/01/20 03:19:32;;;;;;;5.30;3.00;;;;;;;2.22;74.11;96710.25;5008826;28;20080;-69
2022/01/20 03:21:59;;;;;;;6.00;2.33;;;;;;;2.24;74.52;96712.66;5008889;28;20041;-69
2022/01/20 03:24:25;;;;;;;5.88;3.67;;;;;;;2.18;75.58;96708.31;5008505;28;20042;-68
2022/01/20 03:26:53;;;;;;;5.15;3.20;;;;;;;2.09;77.04;96699.94;5023953;28;20049;-68
2022/01/20 03:29:20;;;;;;;6.95;3.53;;;;;;;1.97;78.83;96701.97;5028074;28;20049;-68
2022/01/20 03:31:46;;;;;;;7.38;2.95;;;;;;;1.82;79.83;96706.13;5028568;28;20045;-69
2022/01/20 03:34:13;;;;;;;6.15;3.63;;;;;;;1.76;80.11;96707.13;5028299;28;20065;-68
2022/01/20 03:36:39;;;;;;;6.60;3.20;;;;;;;1.71;80.33;96712.44;5028547;28;20041;-68
2022/01/20 03:39:06;;;;;;;6.15;3.45;;;;;;;1.72;80.39;96714.09;5027730;28;20556;-68
2022/01/20 03:41:33;;;;;;;7.18;3.58;;;;;;;1.68;79.98;96717.53;5026164;28;20049;-69
2022/01/20 03:44:01;;;;;;;6.43;3.70;;;;;;;1.64;80.02;96719.91;5020162;28;20049;-69
2022/01/20 03:46:27;;;;;;;6.05;3.30;;;;;;;1.65;80.27;96721.50;5027990;28;20053;-68
2022/01/20 03:49:02;;;;;;;6.50;3.65;;;;;;;1.52;82.03;96727.28;5028234;28;20045;-68
2022/01/20 03:51:28;;;;;;;6.63;3.40;;;;;;;1.39;83.68;96722.28;5027847;28;20061;-70
2022/01/20 03:53:56;;;;;;;6.95;4.03;;;;;;;1.26;84.95;96735.03;5028056;28;20053;-68
2022/01/20 03:56:24;;;;;;;8.05;4.28;;;;;;;1.20;85.74;96730.66;5027808;28;20053;-68
2022/01/20 03:58:51;;;;;;;8.60;4.30;;;;;;;1.18;86.60;96737.31;5028034;28;20052;-68
2022/01/20 04:01:20;;;;;;;8.52;4.18;;;;;;;1.14;87.34;96741.56;5027357;28;20096;-68
2022/01/20 04:03:46;;;;;;;6.80;4.25;;;;;;;1.09;87.49;96744.97;5027958;28;20049;-68
2022/01/20 04:06:13;;;;;;;7.35;4.22;;;;;;;1.11;87.66;96737.50;5027690;28;20049;-68
2022/01/20 04:08:42;;;;;;;8.00;4.15;;;;;;;1.03;87.99;96732.56;5028033;28;20049;-68
2022/01/20 04:11:11;;;;;;;8.27;4.47;;;;;;;0.93;88.86;96745.81;5027357;28;20056;-69
2022/01/20 04:13:38;;;;;;;9.50;4.57;;;;;;;0.86;89.21;96735.28;5027618;28;20053;-69
2022/01/20 04:16:12;;;;;;;8.32;4.70;;;;;;;0.85;89.66;96732.88;5027338;28;20052;-69
2022/01/20 04:18:41;;;;;;;8.02;4.57;;;;;;;0.82;90.14;96736.03;5027862;28;20549;-71
2022/01/20 04:21:08;;;;;;;10.45;4.90;;;;;;;0.80;90.52;96741.63;5027117;28;20053;-70
2022/01/20 04:23:34;;;;;;;11.23;4.95;;;;;;;0.76;90.71;96737.81;5027866;28;20068;-69
2022/01/20 04:26:01;;;;;;;11.45;5.03;;;;;;;0.73;91.19;96730.25;5027616;28;20046;-69
2022/01/20 04:28:27;;;;;;;9.65;5.50;;;;;;;0.68;91.44;96728.34;5027511;28;20046;-71
2022/01/20 04:30:54;;;;;;;11.27;4.97;;;;;;;0.67;91.55;96726.69;5027843;28;20056;-71
2022/01/20 04:33:20;;;;;;;9.00;5.10;;;;;;;0.63;91.92;96725.59;5027134;28;20053;-71
2022/01/20 04:35:48;;;;;;;10.27;5.65;;;;;;;0.56;92.24;96734.84;5027852;28;20052;-69
2022/01/20 04:38:14;;;;;;;12.30;5.90;;;;;;;0.54;92.75;96735.09;5027263;28;20598;-69
2022/01/20 04:40:42;;;;;;;9.70;5.25;;;;;;;0.51;92.92;96732.88;5027429;28;20427;-69
2022/01/20 04:43:09;;;;;;;10.68;5.78;;;;;;;0.55;92.92;96730.53;5026750;28;20049;-69
2022/01/20 04:45:41;;;;;;;10.80;5.75;;;;;;;0.51;93.22;96725.66;5027747;28;20055;-71
2022/01/20 04:48:21;;;;;;;10.63;5.07;;;;;;;0.52;93.53;96739.88;5027352;28;20069;-70
2022/01/20 04:59:02;;;;;;;9.82;5.22;;;;;;;0.40;94.37;96747.19;5011508;28;20529;-71
2022/01/20 05:01:28;;;;;;;12.80;5.53;;;;;;;0.41;94.49;96743.44;5011642;28;20054;-71
2022/01/20 05:03:56;;;;;;;10.18;5.30;;;;;;;0.38;94.47;96739.41;5011500;28;20053;-71
2022/01/20 05:06:24;;;;;;;10.50;5.80;;;;;;;0.36;94.68;96735.31;5011115;28;20057;-71
2022/01/20 05:08:52;;;;;;;9.57;5.68;;;;;;;0.37;94.89;96736.97;5011305;28;20481;-71
2022/01/20 05:11:19;;;;;;;10.65;5.95;;;;;;;0.39;94.81;96729.50;5010251;28;20049;-71
2022/01/20 05:13:45;;;;;;;11.32;6.22;;;;;;;0.40;94.90;96739.16;5011294;28;20046;-71
2022/01/20 05:16:12;;;;;;;9.48;4.95;;;;;;;0.39;94.76;96730.31;5011026;28;20050;-71
2022/01/20 05:18:38;;;;;;;10.10;5.45;;;;;;;0.37;94.76;96729.75;5011181;28;20049;-71
2022/01/20 05:21:05;;;;;;;9.73;5.32;;;;;;;0.41;94.74;96722.00;5010577;28;20058;-71
2022/01/20 05:23:33;;;;;;;10.68;5.70;;;;;;;0.43;94.58;96719.91;5011267;28;20050;-71
2022/01/20 05:26:00;;;;;;;10.13;5.47;;;;;;;0.43;94.57;96720.72;5011241;28;20046;-71
2022/01/20 05:28:26;;;;;;;9.48;5.60;;;;;;;0.43;94.67;96720.72;5010545;28;20046;-71
2022/01/20 05:30:52;;;;;;;10.90;5.70;;;;;;;0.48;94.46;96717.31;5011075;28;20054;-71
2022/01/20 05:33:19;;;;;;;9.50;5.10;;;;;;;0.45;94.34;96726.63;5010709;28;20054;-70
2022/01/20 05:35:46;;;;;;;8.15;4.88;;;;;;;0.48;94.12;96725.34;5010777;28;20053;-71
2022/01/20 05:38:13;;;;;;;8.10;4.57;;;;;;;0.44;94.33;96716.19;5010622;28;20688;-71
2022/01/20 05:40:40;;;;;;;10.05;5.50;;;;;;;0.43;94.58;96711.88;5010604;28;20131;-71
2022/01/20 05:43:07;;;;;;;8.45;4.55;;;;;;;0.41;94.72;96716.66;5010041;28;20049;-71
2022/01/20 05:45:35;;;;;;;11.75;5.50;;;;;;;0.40;94.62;96718.53;5010760;28;20424;-71
2022/01/20 05:48:10;;;;;;;10.75;5.63;;;;;;;0.44;94.87;96713.50;5010204;28;20100;-72
2022/01/20 05:50:37;;;;;;;10.27;5.50;;;;;;;0.49;94.69;96724.28;5010717;28;20491;-70
2022/01/20 05:53:05;;;;;;;11.48;5.40;;;;;;;0.49;94.63;96718.94;5009932;28;20417;-71
2022/01/20 05:55:32;;;;;;;9.48;5.60;;;;;;;0.51;94.51;96722.16;5010612;28;20045;-71
2022/01/20 05:58:00;;;;;;;10.73;5.97;;;;;;;0.52;94.24;96729.16;5010607;28;20041;-71
2022/01/20 06:00:28;;;;;;;10.45;5.93;;;;;;;0.55;94.13;96723.31;5009986;28;20726;-70
2022/01/20 06:05:41;;;;;;;9.45;5.50;;;;;;;0.64;93.83;96721.03;5010166;28;20049;-70
2022/01/20 06:08:08;;;;;;;10.88;5.78;;;;;;;0.66;93.55;96714.34;5009949;28;20053;-71
2022/01/20 06:10:35;;;;;;;8.85;5.38;;;;;;;0.67;93.44;96715.16;5010110;28;20088;-71
2022/01/20 06:13:04;;;;;;;10.25;5.80;;;;;;;0.67;93.31;96715.97;5010075;28;20050;-70
2022/01/20 06:15:31;;;;;;;11.00;5.88;;;;;;;0.71;93.19;96724.34;5010153;28;20501;-70
2022/01/20 06:17:58;;;;;;;10.13;5.50;;;;;;;0.74;93.04;96727.34;5010491;28;20560;-71
2022/01/20 06:20:25;;;;;;;9.88;5.50;;;;;;;0.73;93.10;96733.78;5009538;28;20046;-80
2022/01/20 06:22:52;;;;;;;9.90;5.45;;;;;;;0.81;93.19;96734.41;5010166;28;20058;-77
2022/01/20 06:25:19;;;;;;;10.10;5.65;;;;;;;0.80;93.00;96735.47;5009977;28;20516;-71
2022/01/20 06:27:45;;;;;;;11.90;6.30;;;;;;;0.82;92.89;96746.75;5009986;28;20062;-70
2022/01/20 06:30:14;;;;;;;11.77;5.50;;;;;;;0.81;92.51;96739.78;5009538;28;20049;-70
2022/01/20 06:32:40;;;;;;;14.07;6.20;;;;;;;0.86;92.51;96742.53;5010073;28;20050;-70
2022/01/20 06:35:08;;;;;;;11.50;6.35;;;;;;;0.86;92.57;96737.16;5009488;28;20050;-71
2022/01/20 06:37:35;;;;;;;14.32;6.32;;;;;;;0.82;92.43;96738.72;5009703;28;20512;-71
2022/01/20 06:40:02;;;;;;;10.80;5.65;;;;;;;0.80;92.38;96741.63;5009529;28;20046;-70
2022/01/20 06:42:28;;;;;;;10.48;5.90;;;;;;;0.76;92.72;96735.94;5028398;28;20122;-71
2022/01/20 06:44:55;;;;;;;10.60;5.57;;;;;;;0.81;92.28;96737.09;5029363;28;20049;-70
2022/01/20 06:47:22;;;;;;;12.07;6.05;;;;;;;0.84;92.07;96737.41;5029001;28;20052;-71
2022/01/20 06:49:49;;;;;;;14.75;6.57;;;;;;;0.87;91.97;96734.22;5028997;28;20045;-71
2022/01/20 06:52:16;;;;;;;13.65;6.50;;;;;;;0.91;91.90;96737.22;5028710;28;20056;-71
2022/01/20 06:54:42;;;;;;;10.60;6.10;;;;;;;0.95;91.66;96728.44;5029054;28;20040;-71
2022/01/20 06:57:09;;;;;;;12.20;7.22;;;;;;;0.94;91.20;96736.72;5028562;28;20674;-71
2022/01/20 06:59:35;;;;;;;15.05;6.93;;;;;;;0.89;91.42;96733.97;5028881;28;20061;-71
2022/01/20 07:02:02;;;;;;;10.75;6.43;;;;;;;0.93;91.51;96730.56;5028505;28;20048;-71
2022/01/20 07:04:32;;;;;;;11.55;6.47;;;;;;;0.95;91.47;96728.44;5029128;28;20052;-70
2022/01/20 07:06:58;;;;;;;12.77;7.03;;;;;;;0.96;91.43;96732.75;5028920;28;20041;-70
2022/01/20 07:09:25;;;;;;;12.63;6.30;;;;;;;0.95;91.41;96738.38;5028557;28;20049;-71
2022/01/20 07:11:52;;;;;;;10.90;6.35;;;;;;;0.97;91.50;96722.84;5028260;28;20048;-71
2022/01/20 07:14:18;;;;;;;12.40;7.25;;;;;;;0.99;91.48;96721.53;5028130;28;20052;-70
2022/01/20 07:16:45;;;;;;;11.73;6.53;;;;;;;1.02;91.32;96722.91;5028449;28;20049;-70
2022/01/20 07:19:12;;;;;;;13.13;7.20;;;;;;;1.03;90.96;96729.88;5027391;28;20121;-71
2022/01/20 07:21:40;;;;;;;10.85;6.65;;;;;;;1.04;91.25;96731.50;5028330;28;20424;-71
2022/01/20 07:24:07;;;;;;;10.05;6.07;;;;;;;1.07;91.23;96736.38;5028267;28;20060;-71
2022/01/20 07:26:34;;;;;;;11.20;6.40;;;;;;;1.12;90.94;96743.69;5028603;28;20409;-72
2022/01/20 07:29:00;;;;;;;9.32;5.35;;;;;;;1.10;90.55;96746.63;5028485;28;20060;-69
2022/01/20 07:31:27;;;;;;;8.77;5.88;;;;;;;1.04;90.47;96743.06;5028101;28;20050;-70
2022/01/20 07:33:54;;;;;;;11.23;6.43;;;;;;;1.10;90.46;96752.00;5028203;28;20049;-70
2022/01/20 07:36:20;;;;;;;11.93;6.32;;;;;;;1.12;90.32;96749.84;5027733;28;20417;-70
2022/01/20 07:38:48;;;;;;;7.65;5.30;;;;;;;1.09;90.16;96755.69;5027987;28;20064;-70
2022/01/20 07:41:15;;;;;;;8.68;5.45;;;;;;;1.11;89.99;96752.78;5027737;28;20524;-71
2022/01/20 07:43:42;;;;;;;11.70;5.80;;;;;;;1.10;89.95;96752.00;5028105;28;20042;-70
2022/01/20 07:46:09;;;;;;;10.38;5.90;;;;;;;1.12;89.83;96757.91;5028048;28;20056;-70
2022/01/20 07:48:35;;;;;;;11.02;5.93;;;;;;;1.16;89.62;96761.72;5028286;28;20040;-71
2022/01/20 07:51:04;;;;;;;7.97;5.03;;;;;;;1.20;89.15;96768.22;5027887;28;20049;-71
2022/01/20 07:53:31;;;;;;;8.45;4.45;;;;;;;1.21;88.76;96767.16;5028220;28;20146;-72
2022/01/20 07:55:59;;;;;;;8.00;5.00;;;;;;;1.22;88.73;96760.72;5027956;28;20041;-74
2022/01/20 07:58:25;;;;;;;8.10;4.78;;;;;;;1.24;88.76;96763.97;5027627;28;20045;-72
2022/01/20 08:00:52;;;;;;;7.13;4.85;;;;;;;1.23;88.39;96761.53;5027892;28;20077;-73
2022/01/20 08:03:18;;;;;;;7.93;4.05;;;;;;;1.28;88.69;96765.09;5027598;28;20053;-73
2022/01/20 08:05:45;;;;;;;7.13;4.28;;;;;;;1.30;88.44;96773.72;5028170;28;20049;-73
2022/01/20 08:08:11;;;;;;;9.10;4.53;;;;;;;1.36;88.60;96776.44;5027481;28;20432;-74
2022/01/20 08:10:38;;;;;;;6.38;4.25;;;;;;;1.39;87.87;96781.31;5027837;28;20045;-72
2022/01/20 08:13:06;;;;;;;7.72;4.80;;;;;;;1.41;87.91;96785.41;5026892;28;20056;-73
2022/01/20 08:15:33;;;;;;;6.30;3.95;;;;;;;1.42;87.70;96781.66;5028008;28;20041;-73
2022/01/20 08:17:59;;;;;;;6.75;4.22;;;;;;;1.41;87.59;96779.19;5027568;28;20045;-73
2022/01/20 08:20:26;;;;;;;7.25;4.30;;;;;;;1.39;87.67;96784.81;5027162;28;20597;-70
2022/01/20 08:22:52;;;;;;;6.45;3.97;;;;;;;1.42;87.70;96786.19;5027812;28;20049;-72
2022/01/20 08:25:20;;;;;;;5.57;3.90;;;;;;;1.46;87.64;96787.31;5026618;28;20050;-73
2022/01/20 08:27:49;;;;;;;5.88;4.22;;;;;;;1.46;87.41;96803.41;5027910;28;20579;-72
2022/01/20 08:30:19;;;;;;;6.50;4.10;;;;;;;1.51;87.57;96806.16;5027148;28;20056;-71
2022/01/20 08:32:47;;;;;;;7.13;4.15;;;;;;;1.48;87.47;96795.94;5027641;28;20047;-72
2022/01/20 08:35:14;;;;;;;7.25;4.20;;;;;;;1.53;87.82;96809.41;5027140;28;20060;-71
2022/01/20 08:37:44;;;;;;;5.50;3.88;;;;;;;1.52;87.48;96810.50;5027979;28;20045;-72
2022/01/20 08:40:13;;;;;;;5.55;3.88;;;;;;;1.49;87.53;96803.72;5026882;28;20671;-72
2022/01/20 08:42:40;;;;;;;6.30;3.85;;;;;;;1.45;87.53;96804.47;5026841;28;20045;-72
2022/01/20 08:45:09;;;;;;;6.18;3.80;;;;;;;1.48;87.53;96812.84;5026811;28;20076;-72
2022/01/20 08:47:36;;;;;;;5.93;3.88;;;;;;;1.52;87.67;96815.84;5027611;28;20049;-72
2022/01/20 08:50:05;;;;;;;6.63;4.25;;;;;;;1.49;87.75;96816.34;5027108;28;20219;-70
2022/01/20 08:52:32;;;;;;;7.53;4.43;;;;;;;1.46;88.02;96825.72;5027476;28;20050;-68
2022/01/20 08:54:59;;;;;;;6.43;3.97;;;;;;;1.38;88.31;96828.00;5027888;28;20052;-68
2022/01/20 08:57:26;;;;;;;7.20;4.40;;;;;;;1.41;88.63;96832.84;5026644;28;20413;-69
2022/01/20 08:59:53;;;;;;;6.57;4.10;;;;;;;1.42;89.02;96818.41;5027756;28;20045;-69
2022/01/20 09:02:20;;;;;;;8.00;4.65;;;;;;;1.38;88.94;96812.72;5026805;28;20053;-70
2022/01/20 09:04:49;;;;;;;7.05;4.50;;;;;;;1.40;89.19;96818.63;5027813;28;20473;-69
2022/01/20 09:07:16;;;;;;;6.93;4.38;;;;;;;1.37;89.12;96821.03;5027135;28;20058;-70
2022/01/20 09:09:46;;;;;;;7.00;4.80;;;;;;;1.30;89.04;96811.28;5027753;28;20058;-70
2022/01/20 09:17:52;;;;;;;7.82;4.28;;;;;;;1.39;90.49;96800.09;5027432;28;20103;-72
2022/01/20 09:20:20;;;;;;;8.90;4.45;;;;;;;1.27;90.04;96801.03;5026593;28;20049;-70
2022/01/20 09:22:48;;;;;;;7.10;4.30;;;;;;;1.17;90.73;96814.31;5026894;28;20136;-69
2022/01/20 09:25:15;;;;;;;8.15;4.97;;;;;;;1.15;91.48;96827.16;5026707;28;20050;-71
2022/01/20 09:27:41;;;;;;;7.72;4.80;;;;;;;1.16;91.65;96823.41;5027168;28;20699;-72
2022/01/20 09:30:09;;;;;;;8.52;4.57;;;;;;;1.18;91.61;96826.66;5026788;28;20041;-72
2022/01/20 09:32:39;;;;;;;7.50;4.25;;;;;;;1.19;91.44;96830.16;5026742;28;20049;-71
2022/01/20 09:35:06;;;;;;;8.10;4.88;;;;;;;1.19;91.70;96839.00;5026784;28;20390;-72
2022/01/20 09:37:38;;;;;;;8.43;5.20;;;;;;;1.24;92.63;96830.22;5029593;28;20428;-72
2022/01/20 09:40:07;;;;;;;6.28;4.53;;;;;;;1.44;92.75;96824.31;5029979;28;20053;-72
2022/01/20 09:42:34;;;;;;;7.32;4.78;;;;;;;1.53;91.79;96830.91;5029415;28;20045;-73
2022/01/20 09:45:01;;;;;;;7.43;4.32;;;;;;;1.65;91.32;96823.53;5014569;28;20042;-73
2022/01/20 09:47:27;;;;;;;7.57;4.47;;;;;;;1.69;90.51;96834.59;5010429;28;20038;-73
2022/01/20 09:49:54;;;;;;;6.15;3.85;;;;;;;1.62;89.62;96837.47;5010644;28;20057;-73
2022/01/20 09:52:22;;;;;;;6.55;4.38;;;;;;;1.66;89.33;96841.25;5010211;28;20050;-73
2022/01/20 09:54:49;;;;;;;6.85;4.13;;;;;;;1.82;89.48;96834.19;5010468;28;20048;-73
2022/01/20 09:57:16;;;;;;;4.95;2.95;;;;;;;1.95;88.38;96830.34;5009933;28;20050;-73
2022/01/20 09:59:43;;;;;;;4.60;3.00;;;;;;;2.02;87.21;96837.13;5010252;28;20052;-73
2022/01/20 10:02:17;;;;;;;5.07;3.10;;;;;;;2.16;86.88;96840.25;5009895;28;20046;-72
2022/01/20 10:04:43;;;;;;;6.00;3.10;;;;;;;2.31;85.07;96832.34;5010433;28;20501;-72
2022/01/20 10:07:13;;;;;;;5.28;3.42;;;;;;;2.37;85.59;96824.31;5010082;28;20054;-73
2022/01/20 10:09:42;;;;;;;7.53;3.20;;;;;;;2.33;84.72;96837.44;5010336;28;20073;-73
2022/01/20 10:12:12;;;;;;;7.22;4.13;;;;;;;2.19;84.59;96834.34;5010076;28;20129;-73
2022/01/20 10:14:40;;;;;;;6.45;3.40;;;;;;;2.16;85.69;96834.06;5029985;28;20049;-72
2022/01/20 10:17:18;;;;;;;9.90;3.67;;;;;;;2.12;85.87;96844.47;5029375;28;20463;-72
2022/01/20 10:19:45;;;;;;;6.15;3.85;;;;;;;2.23;85.92;96834.66;5030227;28;20049;-72
2022/01/20 10:22:14;;;;;;;5.20;3.30;;;;;;;2.16;85.56;96834.88;5029466;28;20049;-73
2022/01/20 10:24:40;;;;;;;6.43;3.45;;;;;;;2.10;85.47;96827.81;5030118;28;20131;-73
2022/01/20 10:27:13;;;;;;;6.25;3.55;;;;;;;2.08;85.95;96832.63;5029423;28;20050;-73
2022/01/20 10:29:40;;;;;;;5.03;2.72;;;;;;;2.10;85.84;96838.56;5029877;28;20049;-73
2022/01/20 10:32:07;;;;;;;7.50;3.60;;;;;;;2.02;84.77;96849.75;5029060;28;20061;-73
2022/01/20 10:34:37;;;;;;;5.28;3.42;;;;;;;2.04;84.87;96847.63;5029601;28;20056;-73
2022/01/20 10:37:07;;;;;;;5.88;3.47;;;;;;;2.11;84.70;96847.44;5029234;28;20049;-71
2022/01/20 10:39:37;;;;;;;5.32;3.72;;;;;;;2.12;84.63;96846.38;5028948;28;20045;-71
2022/01/20 10:42:07;;;;;;;7.63;3.85;;;;;;;2.21;85.09;96845.66;5028314;28;20057;-70
2022/01/20 10:44:46;;;;;;;6.25;3.45;;;;;;;2.28;83.99;96846.28;5029408;28;20046;-71
2022/01/20 10:47:14;;;;;;;5.28;2.78;;;;;;;2.32;84.31;96839.34;5028541;28;20053;-71
2022/01/20 10:49:40;;;;;;;6.72;4.07;;;;;;;2.32;83.86;96833.97;5028699;28;20041;-71
2022/01/20 10:52:10;;;;;;;7.28;3.10;;;;;;;2.31;83.82;96823.47;5028505;28;20060;-71
2022/01/20 10:54:40;;;;;;;4.95;3.20;;;;;;;2.32;83.34;96817.84;5029473;28;20055;-71
2022/01/20 10:57:07;;;;;;;6.07;2.97;;;;;;;2.38;83.25;96820.56;5028845;28;20053;-71
2022/01/20 10:59:35;;;;;;;5.50;3.55;;;;;;;2.30;83.02;96813.78;5028988;28;20049;-71
2022/01/20 11:02:09;;;;;;;6.07;3.47;;;;;;;2.24;83.22;96809.41;5029030;28;20052;-71
2022/01/20 11:04:38;;;;;;;5.32;3.40;;;;;;;2.31;83.52;96810.84;5028952;28;20045;-72
2022/01/20 11:07:07;;;;;;;4.90;3.40;;;;;;;2.31;83.75;96810.84;5028781;28;20708;-72
2022/01/20 11:09:35;;;;;;;5.70;3.35;;;;;;;2.24;83.73;96804.84;5029111;28;20068;-72
2022/01/20 11:12:03;;;;;;;7.90;3.63;;;;;;;2.30;84.48;96803.03;5028147;28;20046;-71
2022/01/20 11:14:30;;;;;;;6.60;3.55;;;;;;;2.30;84.24;96793.09;5012922;28;20045;-73
2022/01/20 11:16:58;;;;;;;6.95;3.65;;;;;;;2.31;84.58;96793.91;5028764;28;20054;-73
2022/01/20 11:19:31;;;;;;;7.07;3.05;;;;;;;2.31;83.11;96778.59;5028325;28;20111;-72
2022/01/20 11:22:06;;;;;;;5.78;3.20;;;;;;;2.27;82.89;96787.41;5028364;28;20126;-71
2022/01/20 11:24:33;;;;;;;4.30;2.78;;;;;;;2.27;82.62;96784.72;5028529;28;20045;-71
2022/01/20 11:27:02;;;;;;;8.18;3.00;;;;;;;2.28;82.99;96776.41;5028673;28;20049;-71
2022/01/20 11:29:40;;;;;;;4.63;2.80;;;;;;;2.30;82.31;96782.34;5028405;28;20056;-73
2022/01/20 11:32:17;;;;;;;6.93;3.25;;;;;;;2.41;82.85;96787.81;5027524;28;20060;-72
2022/01/20 11:35:00;;;;;;;4.95;3.13;;;;;;;2.53;82.59;96775.00;5028472;28;20049;-73
2022/01/20 11:37:28;;;;;;;5.15;2.53;;;;;;;2.75;80.43;96767.66;5028059;28;20516;-74
2022/01/20 11:39:55;;;;;;;5.47;2.78;;;;;;;2.97;79.90;96756.78;5028022;28;20516;-73
2022/01/20 11:42:24;;;;;;;7.05;2.92;;;;;;;3.18;78.58;96755.00;5027253;28;20056;-73
2022/01/20 11:44:51;;;;;;;5.88;2.60;;;;;;;3.10;77.32;96761.72;5028329;28;20048;-73
2022/01/20 11:47:18;;;;;;;7.22;2.47;;;;;;;3.17;77.97;96758.78;5027746;28;20054;-74
2022/01/20 11:49:46;;;;;;;5.85;2.30;;;;;;;3.07;77.14;96758.72;5028345;28;20052;-74
2022/01/20 11:52:24;;;;;;;5.60;2.75;;;;;;;3.08;77.99;96738.81;5027585;28;20049;-73
2022/01/20 11:54:51;;;;;;;5.50;2.67;;;;;;;3.08;78.22;96744.19;5028339;28;20098;-74
2022/01/20 11:57:22;;;;;;;7.25;2.65;;;;;;;2.97;78.21;96729.88;5027520;28;20413;-75
2022/01/20 11:59:54;;;;;;;6.60;2.40;;;;;;;2.78;79.79;96745.63;5027894;28;20042;-74
2022/01/20 12:02:27;;;;;;;4.30;2.47;;;;;;;2.53;80.60;96748.94;5025814;28;20049;-77
2022/01/20 12:04:54;;;;;;;;;;;;;;;2.51;82.23;96734.16;5028756;28;20041;-76
2022/01/20 12:07:27;;;;;;;4.35;2.42;;;;;;;2.45;82.40;96740.53;5027291;28;20299;-78
2022/01/20 12:10:06;;;;;;;6.32;2.80;;;;;;;2.46;82.54;96742.16;5028076;28;20053;-79
2022/01/20 12:12:32;;;;;;;4.30;2.30;;;;;;;2.48;83.56;96742.72;5026870;28;20049;-78
2022/01/20 12:15:08;;;;;;;7.32;2.55;;;;;;;2.30;83.43;96744.72;5028004;28;20523;-77
2022/01/20 12:17:36;;;;;;;6.70;2.80;;;;;;;1.94;84.90;96737.41;5027598;28;20120;-75
2022/01/20 12:20:04;;;;;;;7.57;3.08;;;;;;;1.78;86.76;96734.56;5027373;28;20052;-76
2022/01/20 12:22:31;;;;;;;8.13;3.70;;;;;;;1.73;87.60;96723.75;5027394;28;20507;-73
2022/01/20 12:24:59;;;;;;;11.27;3.85;;;;;;;1.69;88.80;96722.63;5027669;28;20053;-75
2022/01/20 12:27:26;;;;;;;7.57;3.35;;;;;;;1.64;89.48;96714.53;5027267;28;20045;-73
2022/01/20 12:29:53;;;;;;;11.02;3.55;;;;;;;1.65;89.84;96731.44;5027538;28;20049;-74
2022/01/20 12:32:23;;;;;;;7.63;3.78;;;;;;;1.66;90.00;96722.31;5026757;28;20060;-74
2022/01/20 12:34:57;;;;;;;9.48;3.78;;;;;;;1.70;89.66;96710.03;5027653;28;20155;-73